Terminal Aerodrome Forecast
Issued by NWS

Home | Current Version | Previous Version | Text Only | Print | Product List | Glossary On
Versions: 1 2 3 4 5 6 7 8 9 10 11 12 13 14 15 16 17 18 19 20 21 22 23 24 25 26 27
121
FTUS43 KDLH 061235 AAA
TAFHYR
TAF AMD
KHYR 061235Z 0613/0712 23002KT P6SM BKN015 BKN080
      TEMPO 0613/0616 4SM BR OVC009
     FM061800 20012KT P6SM SCT020 BKN080
     FM062200 19014KT P6SM BKN015 OVC040 WS020/23035KT
     FM070200 20014G20KT 3SM -SN OVC012 WS020/24035KT
      TEMPO 0702/0706 1SM -SN OVC008
     FM070600 22012KT P6SM VCSH OVC015 WS020/26035KT=

USA.gov is the U.S. government's official web portal to all federal, state and local government web resources and services.